Wetterdaten: Woche 13.07.15 - 19.07.15 (KW29)
Datum Zeit Temp. A. Feuchte A. Luftdruck Regen Wind Richtung Taupunkt Windchill Windben
13.07.2015 00:00 21,7 C 59 % 1011,6 hPa 0,0 l/m 0,1 km/h N 13,2 C 21,7 C 1,6 km/h
13.07.2015 01:00 23,5 C 52 % 1011,2 hPa 0,0 l/m 0,4 km/h N 13,0 C 23,5 C 3,2 km/h
13.07.2015 02:00 24,2 C 49 % 1011,2 hPa 0,0 l/m 6,2 km/h N 12,7 C 23,7 C 20,1 km/h
13.07.2015 03:00 23,3 C 55 % 1012,3 hPa 0,0 l/m 6,7 km/h N 13,6 C 23,0 C 22,1 km/h
13.07.2015 04:00 20,8 C 66 % 1013,4 hPa 0,0 l/m 6,4 km/h N 14,1 C 20,6 C 18,1 km/h
13.07.2015 05:00 19,9 C 70 % 1013,8 hPa 0,0 l/m 3,1 km/h N 14,3 C 19,9 C 12,1 km/h
13.07.2015 06:00 19,2 C 74 % 1014,4 hPa 0,0 l/m 3,4 km/h N 14,3 C 19,2 C 11,3 km/h
13.07.2015 07:00 18,7 C 74 % 1015,2 hPa 0,0 l/m 4,2 km/h N 14,0 C 18,7 C 14,1 km/h
13.07.2015 08:00 18,2 C 74 % 1015,7 hPa 0,0 l/m 3,1 km/h N 13,5 C 18,2 C 12,1 km/h
13.07.2015 09:00 18,2 C 75 % 1015,8 hPa 0,0 l/m 3,9 km/h N 13,7 C 18,2 C 14,1 km/h
13.07.2015 10:00 19,7 C 69 % 1015,7 hPa 0,0 l/m 7,9 km/h N 13,7 C 18,8 C 24,1 km/h
13.07.2015 11:00 22,2 C 57 % 1015,4 hPa 0,0 l/m 14,0 km/h N 13,2 C 20,2 C 34,2 km/h
13.07.2015 12:00 22,2 C 56 % 1015,2 hPa 0,0 l/m 14,7 km/h N 12,9 C 20,1 C 33,0 km/h
13.07.2015 13:00 22,8 C 55 % 1015,0 hPa 0,0 l/m 12,6 km/h N 13,3 C 21,2 C 34,6 km/h
13.07.2015 14:00 23,0 C 54 % 1014,9 hPa 0,0 l/m 15,4 km/h N 13,1 C 20,9 C 35,8 km/h
13.07.2015 15:00 23,2 C 54 % 1015,0 hPa 0,0 l/m 14,2 km/h N 13,2 C 21,2 C 33,8 km/h
13.07.2015 16:00 22,9 C 55 % 1015,2 hPa 0,0 l/m 9,8 km/h N 13,3 C 21,9 C 27,8 km/h
13.07.2015 17:00 22,4 C 57 % 1014,9 hPa 0,0 l/m 12,7 km/h N 13,3 C 20,6 C 33,0 km/h
13.07.2015 18:00 21,9 C 58 % 1014,8 hPa 0,0 l/m 11,0 km/h N 13,2 C 20,5 C 27,8 km/h
13.07.2015 19:00 21,6 C 58 % 1015,2 hPa 0,0 l/m 10,7 km/h N 13,0 C 20,2 C 27,8 km/h
13.07.2015 20:00 21,2 C 60 % 1015,5 hPa 0,0 l/m 10,2 km/h N 13,1 C 19,9 C 25,7 km/h
13.07.2015 21:00 20,4 C 65 % 1015,8 hPa 0,0 l/m 8,6 km/h N 13,5 C 19,6 C 25,3 km/h
13.07.2015 22:00 19,7 C 70 % 1016,0 hPa 0,0 l/m 8,6 km/h N 14,0 C 18,8 C 24,5 km/h
13.07.2015 23:00 19,0 C 74 % 1016,2 hPa 0,0 l/m 8,4 km/h N 14,2 C 18,2 C 22,9 km/h
14.07.2015 00:00 19,1 C 73 % 1016,2 hPa 0,0 l/m 8,7 km/h N 14,2 C 18,1 C 23,7 km/h
14.07.2015 01:00 18,9 C 74 % 1016,0 hPa 0,0 l/m 5,5 km/h N 14,2 C 18,7 C 15,7 km/h
14.07.2015 02:00 19,0 C 73 % 1015,8 hPa 0,0 l/m 3,7 km/h N 14,1 C 19,0 C 14,5 km/h
14.07.2015 03:00 18,9 C 74 % 1015,5 hPa 0,0 l/m 2,6 km/h N 14,1 C 18,9 C 12,5 km/h
14.07.2015 04:00 19,1 C 74 % 1015,3 hPa 0,0 l/m 4,0 km/h N 14,4 C 19,1 C 17,3 km/h
14.07.2015 05:00 18,9 C 74 % 1015,4 hPa 0,0 l/m 4,2 km/h N 14,2 C 18,9 C 17,3 km/h
14.07.2015 06:00 18,8 C 76 % 1015,3 hPa 0,0 l/m 4,6 km/h N 14,4 C 18,8 C 17,7 km/h
14.07.2015 07:00 18,5 C 78 % 1015,6 hPa 0,0 l/m 3,2 km/h N 14,6 C 18,5 C 16,1 km/h
14.07.2015 08:00 18,6 C 79 % 1015,9 hPa 0,0 l/m 6,4 km/h N 15,0 C 18,3 C 18,5 km/h
14.07.2015 09:00 19,0 C 80 % 1016,1 hPa 0,0 l/m 8,0 km/h N 15,5 C 18,3 C 23,3 km/h
14.07.2015 10:00 19,9 C 79 % 1015,9 hPa 0,0 l/m 6,8 km/h N 16,1 C 19,7 C 24,9 km/h
14.07.2015 11:00 21,3 C 74 % 1015,7 hPa 0,0 l/m 5,0 km/h N 16,5 C 21,3 C 20,9 km/h
14.07.2015 12:00 22,4 C 71 % 1015,7 hPa 0,0 l/m 7,2 km/h N 16,7 C 22,1 C 24,9 km/h
14.07.2015 13:00 22,9 C 68 % 1015,4 hPa 0,0 l/m 6,6 km/h N 16,7 C 22,7 C 22,5 km/h
14.07.2015 14:00 23,5 C 65 % 1015,3 hPa 0,0 l/m 8,8 km/h N 16,6 C 22,9 C 23,7 km/h
14.07.2015 15:00 23,7 C 65 % 1015,3 hPa 0,0 l/m 11,7 km/h N 16,6 C 22,4 C 29,3 km/h
14.07.2015 16:00 24,7 C 64 % 1015,0 hPa 0,0 l/m 7,0 km/h N 17,3 C 24,5 C 22,5 km/h
14.07.2015 17:00 23,0 C 72 % 1015,4 hPa 0,3 l/m 3,9 km/h N 17,7 C 23,0 C 16,1 km/h
14.07.2015 18:00 22,6 C 71 % 1015,1 hPa 0,0 l/m 3,6 km/h N 17,0 C 22,6 C 16,1 km/h
14.07.2015 19:00 22,8 C 68 % 1014,8 hPa 0,0 l/m 2,4 km/h N 16,6 C 22,8 C 14,9 km/h
14.07.2015 20:00 22,8 C 68 % 1014,8 hPa 0,0 l/m 4,8 km/h N 16,6 C 22,8 C 17,7 km/h
14.07.2015 21:00 22,4 C 72 % 1015,5 hPa 0,0 l/m 1,9 km/h N 17,0 C 22,4 C 12,1 km/h
14.07.2015 22:00 22,1 C 73 % 1015,6 hPa 0,0 l/m 0,3 km/h N 16,9 C 22,1 C 6,0 km/h
14.07.2015 23:00 22,0 C 72 % 1015,8 hPa 0,0 l/m 0,7 km/h N 16,7 C 22,0 C 7,6 km/h
15.07.2015 00:00 21,3 C 74 % 1016,0 hPa 0,0 l/m 0,3 km/h N 16,4 C 21,3 C 3,2 km/h
15.07.2015 01:00 21,0 C 75 % 1016,1 hPa 0,0 l/m 0,4 km/h N 16,4 C 21,0 C 7,6 km/h
15.07.2015 02:00 21,3 C 74 % 1015,9 hPa 0,0 l/m 0,4 km/h N 16,4 C 21,3 C 5,6 km/h
15.07.2015 03:00 21,5 C 72 % 1016,1 hPa 0,0 l/m 0,7 km/h N 16,3 C 21,5 C 6,4 km/h
15.07.2015 04:00 20,8 C 75 % 1016,4 hPa 0,0 l/m 1,3 km/h N 16,3 C 20,8 C 8,1 km/h
15.07.2015 05:00 20,6 C 76 % 1016,7 hPa 0,0 l/m 0,1 km/h N 16,1 C 20,6 C 2,4 km/h
15.07.2015 06:00 20,5 C 76 % 1017,1 hPa 0,0 l/m 1,2 km/h N 16,1 C 20,5 C 6,4 km/h
15.07.2015 07:00 21,5 C 71 % 1017,3 hPa 0,0 l/m 3,3 km/h N 16,0 C 21,5 C 12,9 km/h
15.07.2015 08:00 22,3 C 71 % 1017,6 hPa 0,0 l/m 4,4 km/h N 16,8 C 22,3 C 15,7 km/h
15.07.2015 09:00 23,5 C 68 % 1017,6 hPa 0,0 l/m 5,4 km/h N 17,3 C 23,5 C 16,9 km/h
15.07.2015 10:00 24,2 C 66 % 1017,7 hPa 0,0 l/m 6,5 km/h N 17,3 C 24,1 C 18,1 km/h
15.07.2015 11:00 23,9 C 67 % 1017,8 hPa 0,0 l/m 4,8 km/h N 17,4 C 23,9 C 16,5 km/h
15.07.2015 12:00 24,3 C 65 % 1017,9 hPa 0,0 l/m 6,7 km/h N 17,2 C 24,1 C 18,9 km/h
15.07.2015 13:00 24,3 C 65 % 1017,7 hPa 0,0 l/m 5,0 km/h N 17,2 C 24,3 C 15,3 km/h
15.07.2015 14:00 26,2 C 58 % 1017,3 hPa 0,0 l/m 6,8 km/h N 17,1 C 26,1 C 19,7 km/h
15.07.2015 15:00 27,1 C 55 % 1017,0 hPa 0,0 l/m 7,2 km/h N 17,2 C 26,9 C 22,1 km/h
15.07.2015 16:00 27,5 C 52 % 1016,7 hPa 0,0 l/m 6,5 km/h N 16,6 C 27,4 C 18,5 km/h
15.07.2015 17:00 27,8 C 52 % 1016,4 hPa 0,0 l/m 5,3 km/h N 16,9 C 27,8 C 18,1 km/h
15.07.2015 18:00 28,0 C 50 % 1016,2 hPa 0,0 l/m 3,0 km/h N 16,6 C 28,0 C 9,7 km/h
15.07.2015 19:00 27,7 C 49 % 1016,1 hPa 0,0 l/m 1,3 km/h N 16,1 C 27,7 C 7,6 km/h
15.07.2015 20:00 26,2 C 52 % 1016,5 hPa 0,0 l/m 0,2 km/h N 15,4 C 26,2 C 3,6 km/h
15.07.2015 21:00 23,7 C 60 % 1017,2 hPa 0,0 l/m 0,0 km/h N 15,4 C 23,7 C 0,8 km/h
15.07.2015 22:00 21,4 C 68 % 1017,9 hPa 0,0 l/m 0,0 km/h N 15,3 C 21,4 C 0,0 km/h
15.07.2015 23:00 19,6 C 74 % 1018,3 hPa 0,0 l/m 0,1 km/h N 14,8 C 19,6 C 2,4 km/h
16.07.2015 00:00 18,6 C 76 % 1018,6 hPa 0,0 l/m 0,2 km/h N 14,4 C 18,6 C 1,2 km/h
16.07.2015 01:00 17,7 C 78 % 1018,7 hPa 0,0 l/m 0,0 km/h N 13,9 C 17,7 C 0,0 km/h
16.07.2015 02:00 17,0 C 80 % 1018,7 hPa 0,0 l/m 0,0 km/h N 13,6 C 17,0 C 0,4 km/h
16.07.2015 03:00 16,6 C 81 % 1018,8 hPa 0,0 l/m 0,0 km/h N 13,3 C 16,6 C 1,6 km/h
16.07.2015 04:00 16,7 C 81 % 1018,6 hPa 0,0 l/m 0,1 km/h N 13,4 C 16,7 C 2,4 km/h
16.07.2015 05:00 16,2 C 81 % 1018,8 hPa 0,0 l/m 0,0 km/h N 12,8 C 16,2 C 0,0 km/h
16.07.2015 06:00 16,6 C 81 % 1018,9 hPa 0,0 l/m 0,3 km/h N 13,3 C 16,6 C 3,2 km/h
16.07.2015 07:00 18,4 C 79 % 1018,9 hPa 0,0 l/m 0,1 km/h N 14,7 C 18,4 C 0,8 km/h
16.07.2015 08:00 22,4 C 66 % 1018,9 hPa 0,0 l/m 0,6 km/h N 15,6 C 22,4 C 4,0 km/h
16.07.2015 09:00 26,4 C 52 % 1018,9 hPa 0,0 l/m 1,5 km/h N 15,8 C 26,4 C 8,4 km/h
16.07.2015 10:00 28,5 C 48 % 1018,6 hPa 0,0 l/m 1,6 km/h N 16,3 C 28,5 C 9,2 km/h
16.07.2015 11:00 30,2 C 44 % 1018,3 hPa 0,0 l/m 2,0 km/h N 16,4 C 30,2 C 9,6 km/h
16.07.2015 12:00 31,5 C 43 % 1017,8 hPa 0,0 l/m 2,0 km/h N 17,2 C 31,5 C 12,1 km/h
16.07.2015 13:00 31,8 C 45 % 1017,2 hPa 0,0 l/m 1,4 km/h N 18,1 C 31,8 C 9,6 km/h
16.07.2015 14:00 32,0 C 44 % 1016,6 hPa 0,0 l/m 1,8 km/h N 18,0 C 32,0 C 8,4 km/h
16.07.2015 15:00 32,2 C 44 % 1016,0 hPa 0,0 l/m 1,5 km/h N 18,4 C 32,2 C 8,4 km/h
16.07.2015 16:00 31,6 C 45 % 1015,7 hPa 0,0 l/m 1,6 km/h N 18,2 C 31,6 C 8,9 km/h
16.07.2015 17:00 31,3 C 47 % 1015,4 hPa 0,0 l/m 1,0 km/h N 18,5 C 31,3 C 7,2 km/h
16.07.2015 18:00 32,3 C 47 % 1015,0 hPa 0,0 l/m 1,1 km/h N 19,3 C 32,3 C 6,8 km/h
16.07.2015 19:00 31,4 C 49 % 1014,8 hPa 0,0 l/m 1,1 km/h N 19,3 C 31,4 C 8,0 km/h
16.07.2015 20:00 29,8 C 54 % 1014,6 hPa 0,0 l/m 0,5 km/h N 19,3 C 29,8 C 6,8 km/h
16.07.2015 21:00 27,8 C 60 % 1014,8 hPa 0,0 l/m 0,4 km/h N 19,3 C 27,8 C 5,6 km/h
16.07.2015 22:00 26,1 C 66 % 1015,0 hPa 0,0 l/m 0,0 km/h N 19,2 C 26,1 C 0,0 km/h
16.07.2015 23:00 23,6 C 74 % 1015,0 hPa 0,0 l/m 0,0 km/h N 18,7 C 23,6 C 0,4 km/h
17.07.2015 00:00 22,3 C 79 % 1014,9 hPa 0,0 l/m 0,0 km/h N 18,4 C 22,3 C 0,0 km/h
17.07.2015 01:00 21,4 C 81 % 1015,0 hPa 0,0 l/m 0,0 km/h N 17,9 C 21,4 C 0,4 km/h
17.07.2015 02:00 20,8 C 81 % 1014,8 hPa 0,0 l/m 0,0 km/h N 17,4 C 20,8 C 0,0 km/h
17.07.2015 03:00 20,3 C 81 % 1014,9 hPa 0,0 l/m 0,0 km/h N 16,9 C 20,3 C 0,0 km/h
17.07.2015 04:00 20,1 C 80 % 1015,1 hPa 0,0 l/m 0,0 km/h N 16,5 C 20,1 C 0,4 km/h
17.07.2015 05:00 19,8 C 80 % 1015,3 hPa 0,0 l/m 0,0 km/h N 16,1 C 19,8 C 0,0 km/h
17.07.2015 06:00 20,0 C 79 % 1015,6 hPa 0,0 l/m 0,0 km/h N 16,1 C 20,0 C 0,8 km/h
17.07.2015 07:00 21,0 C 78 % 1015,7 hPa 0,0 l/m 0,0 km/h N 17,0 C 21,0 C 0,4 km/h
17.07.2015 08:00 23,4 C 78 % 1015,6 hPa 0,0 l/m 0,0 km/h N 19,2 C 23,4 C 0,8 km/h
17.07.2015 09:00 28,3 C 60 % 1015,4 hPa 0,0 l/m 2,1 km/h N 19,7 C 28,3 C 7,6 km/h
17.07.2015 10:00 30,2 C 50 % 1015,3 hPa 0,0 l/m 3,2 km/h N 18,7 C 30,2 C 10,1 km/h
17.07.2015 11:00 31,6 C 45 % 1015,3 hPa 0,0 l/m 3,3 km/h N 18,0 C 31,6 C 11,7 km/h
17.07.2015 12:00 32,9 C 39 % 1015,1 hPa 0,0 l/m 2,5 km/h N 17,2 C 32,9 C 9,3 km/h
17.07.2015 13:00 34,4 C 35 % 1015,1 hPa 0,0 l/m 2,4 km/h N 16,4 C 34,4 C 11,3 km/h
17.07.2015 14:00 34,8 C 32 % 1014,9 hPa 0,0 l/m 4,6 km/h N 15,6 C 34,8 C 17,3 km/h
17.07.2015 15:00 34,5 C 32 % 1014,7 hPa 0,0 l/m 3,6 km/h N 15,5 C 34,5 C 16,1 km/h
17.07.2015 16:00 34,2 C 34 % 1014,3 hPa 0,0 l/m 3,6 km/h N 15,9 C 34,2 C 12,1 km/h
17.07.2015 17:00 34,2 C 35 % 1013,8 hPa 0,0 l/m 2,7 km/h N 16,3 C 34,2 C 9,7 km/h
17.07.2015 18:00 34,7 C 34 % 1013,3 hPa 0,0 l/m 2,2 km/h N 16,4 C 34,7 C 10,1 km/h
17.07.2015 19:00 34,4 C 35 % 1013,5 hPa 0,0 l/m 0,3 km/h N 16,5 C 34,4 C 3,6 km/h
17.07.2015 20:00 31,7 C 41 % 1013,9 hPa 0,0 l/m 0,6 km/h N 16,8 C 31,7 C 4,0 km/h
17.07.2015 21:00 28,1 C 50 % 1015,2 hPa 0,0 l/m 1,5 km/h N 16,7 C 28,1 C 7,2 km/h
17.07.2015 22:00 25,6 C 57 % 1015,5 hPa 0,0 l/m 0,0 km/h N 16,4 C 25,6 C 0,8 km/h
17.07.2015 23:00 23,5 C 64 % 1015,0 hPa 0,0 l/m 0,0 km/h N 16,3 C 23,5 C 1,2 km/h
18.07.2015 00:00 22,4 C 68 % 1015,3 hPa 0,0 l/m 0,0 km/h N 16,1 C 22,4 C 0,0 km/h
18.07.2015 01:00 22,0 C 70 % 1015,4 hPa 0,0 l/m 0,1 km/h N 16,2 C 22,0 C 1,2 km/h
18.07.2015 02:00 22,3 C 71 % 1015,3 hPa 0,0 l/m 0,7 km/h N 16,7 C 22,3 C 4,4 km/h
18.07.2015 03:00 22,7 C 69 % 1015,0 hPa 0,0 l/m 0,2 km/h N 16,6 C 22,7 C 2,8 km/h
18.07.2015 04:00 22,8 C 69 % 1015,1 hPa 0,0 l/m 0,2 km/h N 16,7 C 22,8 C 2,8 km/h
18.07.2015 05:00 22,3 C 71 % 1015,1 hPa 0,0 l/m 0,6 km/h N 16,8 C 22,3 C 3,6 km/h
18.07.2015 06:00 22,1 C 73 % 1015,5 hPa 0,0 l/m 0,0 km/h N 17,0 C 22,1 C 1,2 km/h
18.07.2015 07:00 22,7 C 67 % 1015,8 hPa 0,0 l/m 0,1 km/h N 16,2 C 22,7 C 2,4 km/h
18.07.2015 08:00 25,6 C 57 % 1016,1 hPa 0,0 l/m 1,0 km/h N 16,5 C 25,6 C 7,2 km/h
18.07.2015 09:00 27,8 C 47 % 1016,4 hPa 0,0 l/m 1,5 km/h N 15,5 C 27,8 C 8,4 km/h
18.07.2015 10:00 29,1 C 47 % 1016,4 hPa 0,0 l/m 1,5 km/h N 16,7 C 29,1 C 8,4 km/h
18.07.2015 11:00 31,0 C 44 % 1015,7 hPa 0,0 l/m 3,1 km/h N 17,1 C 31,0 C 14,5 km/h
18.07.2015 12:00 32,8 C 37 % 1014,9 hPa 0,0 l/m 2,9 km/h N 16,1 C 32,8 C 12,9 km/h
18.07.2015 13:00 34,5 C 34 % 1014,3 hPa 0,0 l/m 1,1 km/h N 16,2 C 34,5 C 7,6 km/h
18.07.2015 14:00 35,6 C 34 % 1014,0 hPa 0,0 l/m 5,7 km/h N 17,3 C 35,6 C 18,9 km/h
18.07.2015 15:00 34,8 C 34 % 1013,3 hPa 0,0 l/m 5,0 km/h N 16,4 C 34,8 C 16,9 km/h
18.07.2015 16:00 34,2 C 35 % 1012,8 hPa 0,0 l/m 3,5 km/h N 16,5 C 34,2 C 15,3 km/h
18.07.2015 17:00 33,8 C 35 % 1012,7 hPa 0,0 l/m 3,2 km/h N 16,2 C 33,8 C 12,9 km/h
18.07.2015 18:00 33,4 C 38 % 1012,8 hPa 0,0 l/m 1,8 km/h N 17,2 C 33,4 C 8,4 km/h
18.07.2015 19:00 31,6 C 46 % 1012,7 hPa 0,0 l/m 1,3 km/h N 18,5 C 31,6 C 8,8 km/h
18.07.2015 20:00 30,1 C 50 % 1012,6 hPa 0,0 l/m 0,4 km/h N 18,4 C 30,1 C 4,4 km/h
18.07.2015 21:00 28,0 C 57 % 1013,0 hPa 0,0 l/m 0,0 km/h N 18,7 C 28,0 C 1,2 km/h
18.07.2015 22:00 25,0 C 66 % 1013,6 hPa 0,0 l/m 0,0 km/h N 18,2 C 25,0 C 0,8 km/h
18.07.2015 23:00 23,1 C 73 % 1013,7 hPa 0,0 l/m 0,0 km/h N 18,0 C 23,1 C 0,4 km/h
19.07.2015 00:00 22,1 C 76 % 1013,6 hPa 0,0 l/m 0,1 km/h N 17,7 C 22,1 C 1,6 km/h
19.07.2015 01:00 21,8 C 78 % 1013,8 hPa 0,0 l/m 0,1 km/h N 17,7 C 21,8 C 1,2 km/h
19.07.2015 02:00 22,0 C 78 % 1013,3 hPa 0,0 l/m 0,0 km/h N 18,0 C 22,0 C 0,8 km/h
19.07.2015 03:00 22,0 C 78 % 1012,7 hPa 0,0 l/m 0,1 km/h N 17,9 C 22,0 C 1,6 km/h
19.07.2015 04:00 22,7 C 74 % 1012,5 hPa 0,0 l/m 1,3 km/h N 17,7 C 22,7 C 6,8 km/h
19.07.2015 05:00 22,6 C 72 % 1012,6 hPa 0,0 l/m 0,2 km/h N 17,2 C 22,6 C 2,8 km/h
19.07.2015 06:00 22,3 C 76 % 1012,2 hPa 0,0 l/m 0,2 km/h N 17,8 C 22,3 C 2,8 km/h
19.07.2015 07:00 23,3 C 73 % 1012,0 hPa 0,0 l/m 0,3 km/h N 18,1 C 23,3 C 4,4 km/h
19.07.2015 08:00 26,3 C 63 % 1011,5 hPa 0,0 l/m 0,0 km/h N 18,6 C 26,3 C 1,2 km/h
19.07.2015 09:00 30,5 C 51 % 1010,8 hPa 0,0 l/m 1,0 km/h N 19,2 C 30,5 C 6,4 km/h
19.07.2015 10:00 32,5 C 46 % 1010,5 hPa 0,0 l/m 2,2 km/h N 19,2 C 32,5 C 11,7 km/h
19.07.2015 11:00 34,2 C 44 % 1010,1 hPa 0,0 l/m 2,0 km/h N 20,3 C 34,2 C 9,3 km/h
19.07.2015 12:00 34,6 C 45 % 1009,5 hPa 0,0 l/m 3,2 km/h N 20,8 C 34,6 C 15,7 km/h
19.07.2015 13:00 37,3 C 38 % 1008,5 hPa 0,0 l/m 2,3 km/h N 20,5 C 37,3 C 12,9 km/h
19.07.2015 14:00 37,5 C 36 % 1007,7 hPa 0,0 l/m 3,6 km/h N 19,7 C 37,5 C 14,5 km/h
19.07.2015 15:00 35,9 C 38 % 1007,1 hPa 0,0 l/m 4,0 km/h N 19,3 C 35,9 C 13,7 km/h
19.07.2015 16:00 35,7 C 38 % 1006,6 hPa 0,0 l/m 1,6 km/h N 19,2 C 35,7 C 8,4 km/h
19.07.2015 17:00 36,1 C 34 % 1006,4 hPa 0,0 l/m 1,4 km/h N 17,7 C 36,1 C 10,1 km/h
19.07.2015 18:00 35,6 C 36 % 1006,0 hPa 0,0 l/m 1,2 km/h N 18,1 C 35,6 C 7,6 km/h
19.07.2015 19:00 35,4 C 33 % 1005,8 hPa 0,0 l/m 1,1 km/h N 16,5 C 35,4 C 12,9 km/h
19.07.2015 20:00 33,6 C 36 % 1005,9 hPa 0,0 l/m 1,7 km/h N 16,2 C 33,6 C 8,9 km/h
19.07.2015 21:00 31,4 C 42 % 1006,9 hPa 0,0 l/m 2,7 km/h N 16,8 C 31,4 C 11,3 km/h
19.07.2015 22:00 29,6 C 47 % 1007,8 hPa 0,0 l/m 0,9 km/h N 17,1 C 29,6 C 6,4 km/h
19.07.2015 23:00 29,1 C 47 % 1008,0 hPa 0,0 l/m 0,7 km/h N 16,6 C 29,1 C 6,8 km/h
Min-Datum _ 16.07.15 19.07.15 19.07.15 - 13.07.15 - 13.07.15 16.07.15 13.07.15
_ Min-Zeit 05:30 17:00 19:30 - 00:00 - 02:15 05:30 00:00
Minimum _ 16,1 C 28 % 1005,7 hPa - 0,0 km/h - 12,3 C 16,1 C 0,0 km/h
Max-Datum _ 19.07.15 16.07.15 16.07.15 14.07.15 13.07.15 - 19.07.15 19.07.15 13.07.15
_ Max-Zeit 14:00 02:45 07:15 17:00 11:45 - 12:30 13:45 13:30
Maximum _ 38,4 C 81 % 1019,0 hPa 0,3 l/m 18,1 km/h
N
- 21,2 C 38,2 C 41,8 km/h
N
Durchschnitt _ 25,2 C 61 % 1014,8 hPa #0,3 l/m 3,0 km/h N 16,3 C 25,0 C 10,9 km/h